createdAt,value
2023-04-15T00:00:37.856Z,2.00
2023-04-15T00:03:05.563Z,2.20
2023-04-15T00:05:32.614Z,2.45
2023-04-15T00:07:59.038Z,3.00
2023-04-15T00:10:25.830Z,2.08
2023-04-15T00:12:52.446Z,2.50
2023-04-15T00:15:18.969Z,2.78
2023-04-15T00:17:46.001Z,2.10
2023-04-15T00:20:12.560Z,2.42
2023-04-15T00:22:38.965Z,2.80
2023-04-15T00:25:05.424Z,2.53
2023-04-15T00:27:31.872Z,2.28
2023-04-15T00:29:58.231Z,2.15
2023-04-15T00:32:24.684Z,2.35
2023-04-15T00:34:51.142Z,2.53
2023-04-15T00:37:17.484Z,2.20
2023-04-15T00:39:44.075Z,2.42
2023-04-15T00:42:10.591Z,2.10
2023-04-15T00:44:36.915Z,2.08
2023-04-15T00:47:04.198Z,2.40
2023-04-15T00:49:30.757Z,2.13
2023-04-15T00:51:57.127Z,2.97
2023-04-15T00:54:23.509Z,2.88
2023-04-15T00:56:49.858Z,2.42
2023-04-15T00:59:17.428Z,2.42
2023-04-15T01:01:44.430Z,2.15
2023-04-15T01:04:12.154Z,2.50
2023-04-15T01:06:38.652Z,2.28
2023-04-15T01:09:05.206Z,2.42
2023-04-15T01:11:34.189Z,2.50
2023-04-15T01:14:00.975Z,2.72
2023-04-15T01:16:28.822Z,2.20
2023-04-15T01:18:55.723Z,3.15
2023-04-15T01:21:22.226Z,2.10
2023-04-15T01:23:48.928Z,2.60
2023-04-15T01:26:16.298Z,2.55
2023-04-15T01:28:42.698Z,3.47
2023-04-15T01:31:13.478Z,2.30
2023-04-15T01:33:41.101Z,3.03
2023-04-15T01:36:09.676Z,1.60
2023-04-15T01:38:36.647Z,3.25
2023-04-15T01:41:04.739Z,2.53
2023-04-15T01:43:31.052Z,2.63
2023-04-15T01:45:57.376Z,2.55
2023-04-15T01:48:23.677Z,2.55
2023-04-15T01:50:50.452Z,2.80
2023-04-15T01:53:16.989Z,2.58
2023-04-15T01:55:43.310Z,2.60
2023-04-15T01:58:09.898Z,2.92
2023-04-15T02:00:36.867Z,3.92
2023-04-15T02:03:03.408Z,2.90
2023-04-15T02:05:29.927Z,3.50
2023-04-15T02:07:56.335Z,2.92
2023-04-15T02:10:23.309Z,2.75
2023-04-15T02:12:49.752Z,2.20
2023-04-15T02:15:16.396Z,2.03
2023-04-15T02:17:45.971Z,3.17
2023-04-15T02:20:12.580Z,2.90
2023-04-15T02:22:39.058Z,2.03
2023-04-15T02:25:05.736Z,3.00
2023-04-15T02:27:32.854Z,2.42
2023-04-15T02:29:59.328Z,2.13
2023-04-15T02:32:25.825Z,2.72
2023-04-15T02:34:52.604Z,2.70
2023-04-15T02:37:20.370Z,2.90
2023-04-15T02:39:46.864Z,3.22
2023-04-15T02:42:13.441Z,1.60
2023-04-15T02:44:39.850Z,2.55
2023-04-15T02:47:07.228Z,2.58
2023-04-15T02:49:33.845Z,2.45
2023-04-15T02:52:00.612Z,2.95
2023-04-15T02:54:30.061Z,2.67
2023-04-15T02:56:56.733Z,3.40
2023-04-15T02:59:23.145Z,2.15
2023-04-15T03:01:49.680Z,2.17
2023-04-15T03:04:16.499Z,3.05
2023-04-15T03:06:42.952Z,2.33
2023-04-15T03:09:09.403Z,2.50
2023-04-15T03:11:40.502Z,2.17
2023-04-15T03:14:06.964Z,3.03
2023-04-15T03:16:33.508Z,2.70
2023-04-15T03:19:00.080Z,3.05
2023-04-15T03:21:26.825Z,2.88
2023-04-15T03:23:53.229Z,2.60
2023-04-15T03:26:32.132Z,3.15
2023-04-15T03:28:58.519Z,2.45
2023-04-15T03:31:25.150Z,3.10
2023-04-15T03:33:51.544Z,3.25
2023-04-15T03:36:17.950Z,2.30
2023-04-15T03:38:44.316Z,1.48
2023-04-15T03:41:10.690Z,2.55
2023-04-15T03:43:37.006Z,2.53
2023-04-15T03:46:03.614Z,3.05
2023-04-15T03:48:30.032Z,2.58
2023-04-15T03:50:56.622Z,3.72
2023-04-15T03:53:23.003Z,3.78
2023-04-15T03:55:49.417Z,2.67
2023-04-15T03:58:15.955Z,3.00
2023-04-15T04:00:42.603Z,2.38
2023-04-15T04:03:09.118Z,2.63
2023-04-15T04:05:38.890Z,3.10
2023-04-15T04:08:05.616Z,3.05
2023-04-15T04:10:31.980Z,3.03
2023-04-15T04:12:58.409Z,3.53
2023-04-15T04:15:24.750Z,2.78
2023-04-15T04:17:51.412Z,2.88
2023-04-15T04:20:17.965Z,2.40
2023-04-15T04:22:44.359Z,1.90
2023-04-15T04:25:11.155Z,2.20
2023-04-15T04:27:37.597Z,2.58
2023-04-15T04:30:04.542Z,2.70
2023-04-15T04:32:31.029Z,2.20
2023-04-15T04:34:57.389Z,2.90
2023-04-15T04:37:24.622Z,2.42
2023-04-15T04:39:51.099Z,2.97
2023-04-15T04:42:17.538Z,3.30
2023-04-15T04:44:43.859Z,2.83
2023-04-15T04:47:10.432Z,3.25
2023-04-15T04:49:36.921Z,2.97
2023-04-15T04:52:03.503Z,3.35
2023-04-15T04:54:31.162Z,2.95
2023-04-15T04:56:57.841Z,2.15
2023-04-15T04:59:24.773Z,3.17
2023-04-15T05:01:51.393Z,2.53
2023-04-15T05:04:18.000Z,2.67
2023-04-15T05:06:44.332Z,2.90
2023-04-15T05:09:10.996Z,2.80
2023-04-15T05:11:37.392Z,2.78
2023-04-15T05:14:03.762Z,3.10
2023-04-15T05:16:30.152Z,2.15
2023-04-15T05:18:56.743Z,3.85
2023-04-15T05:21:23.393Z,2.70
2023-04-15T05:23:49.727Z,3.08
2023-04-15T05:26:16.477Z,3.25
2023-04-15T05:28:42.936Z,3.45
2023-04-15T05:31:09.343Z,3.15
2023-04-15T05:33:35.768Z,2.58
2023-04-15T05:36:02.116Z,2.58
2023-04-15T05:38:28.500Z,3.40
2023-04-15T05:40:54.845Z,3.17
2023-04-15T05:43:21.556Z,2.92
2023-04-15T05:45:47.908Z,2.60
2023-04-15T05:48:14.254Z,3.05
2023-04-15T05:50:41.923Z,3.13
2023-04-15T05:53:08.662Z,3.55
2023-04-15T05:55:35.002Z,2.90
2023-04-15T05:58:01.379Z,3.85
2023-04-15T06:00:27.691Z,3.00
2023-04-15T06:02:54.816Z,4.00
2023-04-15T06:05:21.196Z,3.72
2023-04-15T06:07:48.584Z,3.88
2023-04-15T06:10:15.527Z,3.95
2023-04-15T06:12:41.985Z,3.42
2023-04-15T06:15:10.367Z,3.75
2023-04-15T06:17:37.271Z,3.72
2023-04-15T06:20:04.022Z,4.00
2023-04-15T06:22:30.470Z,4.10
2023-04-15T06:24:56.788Z,3.90
2023-04-15T06:27:23.226Z,4.28
2023-04-15T06:29:49.717Z,4.60
2023-04-15T06:32:16.236Z,4.78
2023-04-15T06:34:42.544Z,4.35
2023-04-15T06:37:11.051Z,4.45
2023-04-15T06:39:38.342Z,4.10
2023-04-15T06:42:04.791Z,4.35
2023-04-15T06:44:33.274Z,4.30
2023-04-15T06:47:00.181Z,4.35
2023-04-15T06:49:26.708Z,4.47
2023-04-15T06:51:53.209Z,4.20
2023-04-15T06:54:19.621Z,4.75
2023-04-15T06:56:46.206Z,5.00
2023-04-15T06:59:12.930Z,4.20
2023-04-15T07:01:39.281Z,4.68
2023-04-15T07:04:06.218Z,4.82
2023-04-15T07:06:32.797Z,3.85
2023-04-15T07:08:59.604Z,4.53
2023-04-15T07:11:26.453Z,4.65
2023-04-15T07:13:52.897Z,4.57
2023-04-15T07:16:19.263Z,4.65
2023-04-15T07:18:45.767Z,4.70
2023-04-15T07:21:12.636Z,4.32
2023-04-15T07:23:38.985Z,4.72
2023-04-15T07:26:05.662Z,4.97
2023-04-15T07:28:32.075Z,3.92
2023-04-15T07:30:58.442Z,4.80
2023-04-15T07:33:24.800Z,4.68
2023-04-15T07:35:51.166Z,4.00
2023-04-15T07:38:17.949Z,4.22
2023-04-15T07:40:44.268Z,4.30
2023-04-15T07:43:10.812Z,4.97
2023-04-15T07:45:37.204Z,4.22
2023-04-15T07:48:03.765Z,3.92
2023-04-15T07:50:30.213Z,4.63
2023-04-15T07:52:57.347Z,4.07
2023-04-15T07:55:23.818Z,3.17
2023-04-15T07:57:50.551Z,3.85
2023-04-15T08:00:16.995Z,5.63
2023-04-15T08:02:43.559Z,4.43
2023-04-15T08:05:10.737Z,4.05
2023-04-15T08:07:38.286Z,4.18
2023-04-15T08:10:04.855Z,5.32
2023-04-15T08:12:31.670Z,5.80
2023-04-15T08:14:58.143Z,4.20
2023-04-15T08:17:24.889Z,4.20
2023-04-15T08:19:51.443Z,3.75
2023-04-15T08:22:18.554Z,4.90
2023-04-15T08:24:45.805Z,4.72
2023-04-15T08:27:12.233Z,4.85
2023-04-15T08:29:38.596Z,4.82
2023-04-15T08:32:06.788Z,4.32
2023-04-15T08:34:33.265Z,4.32
2023-04-15T08:36:59.576Z,4.53
2023-04-15T08:39:26.284Z,4.43
2023-04-15T08:41:59.240Z,4.47
2023-04-15T08:44:27.045Z,4.40
2023-04-15T08:46:53.461Z,4.25
2023-04-15T08:49:21.922Z,4.40
2023-04-15T08:51:49.624Z,3.97
2023-04-15T08:54:16.150Z,3.90
2023-04-15T08:56:42.691Z,3.72
2023-04-15T08:59:09.818Z,4.28
2023-04-15T09:01:37.481Z,4.15
2023-04-15T09:04:06.601Z,4.82
2023-04-15T09:06:33.103Z,3.88
2023-04-15T09:08:59.532Z,3.85
2023-04-15T09:11:25.992Z,6.28
2023-04-15T09:13:52.590Z,8.18
2023-04-15T09:16:19.552Z,6.22
2023-04-15T09:18:46.139Z,5.50
2023-04-15T09:21:14.122Z,6.68
2023-04-15T09:23:41.902Z,5.43
2023-04-15T09:26:08.404Z,6.97
2023-04-15T09:28:41.501Z,10.48
2023-04-15T09:31:07.873Z,5.50
2023-04-15T09:33:34.328Z,7.90
2023-04-15T09:36:05.121Z,5.97
2023-04-15T09:38:32.168Z,7.63
2023-04-15T09:40:59.054Z,7.13
2023-04-15T09:43:37.816Z,15.48
2023-04-15T09:46:04.389Z,7.50
2023-04-15T09:48:31.223Z,4.32
2023-04-15T09:50:58.033Z,4.20
2023-04-15T09:53:24.848Z,4.40
2023-04-15T09:55:55.473Z,3.55
2023-04-15T09:58:23.363Z,3.15
2023-04-15T10:00:51.060Z,2.00
2023-04-15T10:03:20.755Z,2.03
2023-04-15T10:05:52.010Z,1.98
2023-04-15T10:08:19.295Z,1.65
2023-04-15T10:10:46.333Z,1.80
2023-04-15T10:13:19.258Z,2.20
2023-04-15T10:15:48.086Z,2.25
2023-04-15T10:18:16.329Z,1.92
2023-04-15T10:20:43.205Z,1.38
2023-04-15T10:23:11.568Z,1.63
2023-04-15T10:25:39.191Z,1.38
2023-04-15T10:28:06.759Z,1.15
2023-04-15T10:30:33.374Z,1.85
2023-04-15T10:33:00.666Z,1.40
2023-04-15T10:35:28.446Z,1.52
2023-04-15T10:37:54.845Z,1.70
2023-04-15T10:40:24.128Z,1.48
2023-04-15T10:42:50.569Z,1.70
2023-04-15T10:45:18.028Z,1.60
2023-04-15T10:47:44.402Z,1.30
2023-04-15T10:50:10.876Z,1.45
2023-04-15T10:52:40.036Z,2.10
2023-04-15T10:55:12.586Z,1.50
2023-04-15T10:57:39.566Z,1.77
2023-04-15T11:00:09.160Z,1.40
2023-04-15T11:02:44.937Z,2.35
2023-04-15T11:05:11.839Z,2.33
2023-04-15T11:07:39.667Z,2.00
2023-04-15T11:10:17.965Z,2.08
2023-04-15T11:12:45.387Z,1.75
2023-04-15T11:15:31.066Z,1.10
2023-04-15T11:17:58.099Z,1.30
2023-04-15T11:20:24.972Z,1.55
2023-04-15T11:22:51.846Z,1.08
2023-04-15T11:25:31.556Z,1.15
2023-04-15T11:27:59.364Z,1.58
2023-04-15T11:30:26.748Z,1.63
2023-04-15T11:32:55.112Z,1.30
2023-04-15T11:35:22.010Z,1.25
2023-04-15T11:37:49.529Z,2.03
2023-04-15T11:40:17.598Z,1.60
2023-04-15T11:42:50.018Z,1.40
2023-04-15T11:45:16.620Z,2.03
2023-04-15T11:47:43.123Z,1.95
2023-04-15T11:50:19.605Z,1.83
2023-04-15T11:52:55.065Z,1.75
2023-04-15T11:55:21.556Z,2.25
2023-04-15T11:57:47.913Z,2.67
2023-04-15T12:00:14.328Z,2.25
2023-04-15T12:02:40.780Z,2.47
2023-04-15T12:05:07.375Z,2.17
2023-04-15T12:07:34.570Z,2.80
2023-04-15T12:10:00.911Z,2.00
2023-04-15T12:12:30.871Z,2.63
2023-04-15T12:14:57.861Z,2.30
2023-04-15T12:17:24.504Z,2.75
2023-04-15T12:19:56.077Z,1.75
2023-04-15T12:22:22.960Z,2.25
2023-04-15T12:24:54.578Z,1.70
2023-04-15T12:27:21.165Z,2.20
2023-04-15T12:29:47.731Z,2.38
2023-04-15T12:32:17.605Z,2.53
2023-04-15T12:34:51.312Z,2.83
2023-04-15T12:37:17.747Z,2.75
2023-04-15T12:39:45.920Z,2.85
2023-04-15T12:42:12.961Z,2.17
2023-04-15T12:44:39.613Z,2.20
2023-04-15T12:47:06.812Z,2.38
2023-04-15T12:49:33.715Z,2.20
2023-04-15T12:52:01.223Z,1.80
2023-04-15T12:54:28.004Z,2.10
2023-04-15T12:56:55.369Z,2.05
2023-04-15T12:59:21.963Z,2.10
2023-04-15T13:01:48.955Z,1.98
2023-04-15T13:04:16.365Z,1.50
2023-04-15T13:06:43.081Z,1.80
2023-04-15T13:09:09.488Z,1.40
2023-04-15T13:11:36.459Z,1.52
2023-04-15T13:14:04.112Z,1.88
2023-04-15T13:16:32.076Z,1.23
2023-04-15T13:19:02.294Z,1.55
2023-04-15T13:21:28.923Z,1.17
2023-04-15T13:23:55.642Z,1.45
2023-04-15T13:26:22.212Z,1.67
2023-04-15T13:28:48.612Z,1.90
2023-04-15T13:31:15.082Z,1.45
2023-04-15T13:33:41.520Z,1.60
2023-04-15T13:36:08.298Z,1.63
2023-04-15T13:38:34.667Z,1.92
2023-04-15T13:41:01.139Z,1.55
2023-04-15T13:43:27.590Z,1.38
2023-04-15T13:45:53.944Z,1.60
2023-04-15T13:48:20.331Z,1.45
2023-04-15T13:50:46.779Z,1.80
2023-04-15T13:53:13.159Z,2.33
2023-04-15T13:55:41.714Z,1.33
2023-04-15T13:58:11.184Z,2.17
2023-04-15T14:00:37.618Z,1.45
2023-04-15T14:03:04.644Z,2.08
2023-04-15T14:05:31.142Z,1.60
2023-04-15T14:07:57.710Z,1.27
2023-04-15T14:10:24.043Z,1.80
2023-04-15T14:12:50.722Z,1.38
2023-04-15T14:15:17.164Z,1.70
2023-04-15T14:17:43.636Z,1.15
2023-04-15T14:20:10.224Z,1.20
2023-04-15T14:22:36.642Z,1.45
2023-04-15T14:25:03.375Z,1.40
2023-04-15T14:27:29.756Z,1.45
2023-04-15T14:29:57.712Z,1.55
2023-04-15T14:32:25.462Z,1.60
2023-04-15T14:34:51.856Z,1.67
2023-04-15T14:37:18.181Z,1.75
2023-04-15T14:39:44.623Z,1.80
2023-04-15T14:42:11.085Z,1.77
2023-04-15T14:44:37.572Z,2.30
2023-04-15T14:47:04.081Z,2.00
2023-04-15T14:49:30.650Z,2.25
2023-04-15T14:51:56.968Z,1.60
2023-04-15T14:54:23.308Z,1.77
2023-04-15T14:56:49.644Z,1.90
2023-04-15T14:59:15.980Z,1.85
2023-04-15T15:01:42.420Z,2.65
2023-04-15T15:04:09.965Z,2.00
2023-04-15T15:06:36.465Z,1.58
2023-04-15T15:09:03.383Z,1.85
2023-04-15T15:11:30.414Z,2.00
2023-04-15T15:13:57.081Z,1.77
2023-04-15T15:16:23.530Z,1.45
2023-04-15T15:18:51.106Z,2.28
2023-04-15T15:21:17.957Z,1.70
2023-04-15T15:23:44.601Z,1.60
2023-04-15T15:26:11.490Z,1.80
2023-04-15T15:28:37.789Z,1.48
2023-04-15T15:31:05.284Z,1.63
2023-04-15T15:33:31.914Z,1.75
2023-04-15T15:35:58.401Z,1.17
2023-04-15T15:38:24.843Z,1.67
2023-04-15T15:40:52.113Z,1.38
2023-04-15T15:43:18.448Z,1.10
2023-04-15T15:45:44.846Z,1.63
2023-04-15T15:48:11.459Z,1.20
2023-04-15T15:50:37.986Z,1.40
2023-04-15T15:53:04.384Z,1.25
2023-04-15T15:55:30.890Z,1.40
2023-04-15T15:57:57.328Z,1.58
2023-04-15T16:00:23.778Z,1.50
2023-04-15T16:03:05.726Z,1.00
2023-04-15T16:05:33.016Z,1.20
2023-04-15T16:07:59.387Z,1.50
2023-04-15T16:10:25.958Z,1.42
2023-04-15T16:12:52.409Z,1.98
2023-04-15T16:15:18.794Z,1.48
2023-04-15T16:17:45.429Z,1.55
2023-04-15T16:20:11.764Z,1.27
2023-04-15T16:22:38.888Z,1.67
2023-04-15T16:25:05.524Z,1.60
2023-04-15T16:27:32.186Z,1.70
2023-04-15T16:29:58.613Z,1.70
2023-04-15T16:32:25.145Z,1.25
2023-04-15T16:34:52.541Z,1.00
2023-04-15T16:37:19.898Z,1.45
2023-04-15T16:39:47.841Z,0.80
2023-04-15T16:42:14.222Z,1.00
2023-04-15T16:44:40.636Z,1.08
2023-04-15T16:47:08.936Z,1.48
2023-04-15T16:49:35.538Z,1.00
2023-04-15T16:52:02.463Z,1.17
2023-04-15T16:54:29.754Z,1.25
2023-04-15T16:56:57.547Z,1.00
2023-04-15T16:59:24.082Z,1.60
2023-04-15T17:01:50.752Z,1.52
2023-04-15T17:04:17.480Z,0.95
2023-04-15T17:06:43.999Z,0.90
2023-04-15T17:09:10.392Z,1.00
2023-04-15T17:11:38.865Z,1.10
2023-04-15T17:14:05.880Z,1.02
2023-04-15T17:16:32.294Z,0.85
2023-04-15T17:18:58.700Z,1.42
2023-04-15T17:21:25.766Z,0.93
2023-04-15T17:23:52.404Z,0.70
2023-04-15T17:26:19.334Z,1.08
2023-04-15T17:28:46.025Z,1.30
2023-04-15T17:31:12.448Z,1.00
2023-04-15T17:33:57.482Z,0.75
2023-04-15T17:36:26.698Z,1.02
2023-04-15T17:38:54.494Z,0.95
2023-04-15T17:41:21.193Z,1.10
2023-04-15T17:43:47.724Z,1.10
2023-04-15T17:46:14.313Z,0.90
2023-04-15T17:48:41.171Z,0.93
2023-04-15T17:51:07.726Z,0.80
2023-04-15T17:53:34.087Z,0.95
2023-04-15T17:56:00.606Z,1.02
2023-04-15T17:58:28.046Z,0.90
2023-04-15T18:00:54.495Z,0.90
2023-04-15T18:03:22.037Z,0.80
2023-04-15T18:05:48.825Z,1.10
2023-04-15T18:08:15.313Z,1.13
2023-04-15T18:10:41.710Z,0.65
2023-04-15T18:13:08.338Z,1.20
2023-04-15T18:15:34.959Z,1.52
2023-04-15T18:18:01.546Z,0.80
2023-04-15T18:20:29.078Z,0.82
2023-04-15T18:22:55.876Z,0.65
2023-04-15T18:25:22.275Z,1.23
2023-04-15T18:27:49.041Z,1.13
2023-04-15T18:30:15.431Z,1.25
2023-04-15T18:32:41.980Z,1.00
2023-04-15T18:35:08.572Z,1.17
2023-04-15T18:37:35.360Z,1.08
2023-04-15T18:40:01.737Z,0.85
2023-04-15T18:42:28.178Z,1.13
2023-04-15T18:44:54.653Z,1.25
2023-04-15T18:47:21.086Z,1.00
2023-04-15T18:49:47.502Z,0.80
2023-04-15T18:52:13.844Z,0.90
2023-04-15T18:54:40.356Z,0.95
2023-04-15T18:57:06.883Z,0.70
2023-04-15T18:59:33.666Z,0.85
2023-04-15T19:02:01.217Z,0.60
2023-04-15T19:04:29.346Z,0.80
2023-04-15T19:06:56.035Z,0.60
2023-04-15T19:09:22.548Z,0.70
2023-04-15T19:11:48.873Z,0.73
2023-04-15T19:14:15.202Z,0.60
2023-04-15T19:16:41.627Z,0.88
2023-04-15T19:19:08.040Z,0.70
2023-04-15T19:21:34.496Z,0.88
2023-04-15T19:24:01.004Z,1.00
2023-04-15T19:26:27.372Z,1.13
2023-04-15T19:28:53.947Z,0.60
2023-04-15T19:31:20.587Z,0.98
2023-04-15T19:33:46.992Z,0.85
2023-04-15T19:36:13.418Z,0.65
2023-04-15T19:38:39.809Z,0.80
2023-04-15T19:41:06.287Z,0.80
2023-04-15T19:43:32.695Z,1.00
2023-04-15T19:45:59.227Z,0.70
2023-04-15T19:48:25.796Z,1.02
2023-04-15T19:50:52.238Z,1.05
2023-04-15T19:53:18.720Z,0.60
2023-04-15T19:55:45.717Z,0.93
2023-04-15T19:58:12.182Z,1.00
2023-04-15T20:00:38.509Z,1.05
2023-04-15T20:03:05.257Z,0.70
2023-04-15T20:05:31.757Z,1.30
2023-04-15T20:07:59.837Z,0.90
2023-04-15T20:10:26.457Z,0.75
2023-04-15T20:12:53.481Z,1.02
2023-04-15T20:15:21.520Z,0.85
2023-04-15T20:17:47.951Z,0.90
2023-04-15T20:20:14.389Z,0.80
2023-04-15T20:22:41.313Z,1.05
2023-04-15T20:25:08.141Z,0.68
2023-04-15T20:27:34.574Z,0.85
2023-04-15T20:30:01.283Z,0.90
2023-04-15T20:32:28.417Z,0.95
2023-04-15T20:34:55.053Z,0.80
2023-04-15T20:37:22.174Z,0.85
2023-04-15T20:39:48.738Z,1.08
2023-04-15T20:42:15.468Z,0.63
2023-04-15T20:44:41.932Z,0.90
2023-04-15T20:47:08.442Z,0.60
2023-04-15T20:49:35.771Z,1.00
2023-04-15T20:52:02.419Z,0.88
2023-04-15T20:54:28.961Z,0.60
2023-04-15T20:56:56.276Z,0.75
2023-04-15T20:59:22.789Z,0.50
2023-04-15T21:01:49.198Z,0.70
2023-04-15T21:04:15.789Z,0.52
2023-04-15T21:06:42.196Z,0.73
2023-04-15T21:09:08.597Z,0.95
2023-04-15T21:11:46.198Z,0.90
2023-04-15T21:19:13.972Z,0.77
2023-04-15T21:21:40.352Z,0.60
2023-04-15T21:24:07.867Z,0.60
2023-04-15T21:26:35.923Z,0.50
2023-04-15T21:29:02.683Z,0.60
2023-04-15T21:31:29.165Z,0.50
2023-04-15T21:33:55.491Z,0.50
2023-04-15T21:36:21.803Z,0.50
2023-04-15T21:38:48.205Z,0.38
2023-04-15T21:41:14.541Z,0.30
2023-04-15T21:43:41.011Z,0.50
2023-04-15T21:46:22.777Z,0.50
2023-04-15T21:48:51.558Z,0.40
2023-04-15T21:51:17.910Z,0.70
2023-04-15T21:53:44.345Z,0.30
2023-04-15T21:56:11.072Z,0.55
2023-04-15T21:58:37.673Z,0.40
2023-04-15T22:01:04.599Z,0.52
2023-04-15T22:03:34.841Z,0.70
2023-04-15T22:06:04.384Z,0.68
2023-04-15T22:08:38.559Z,0.47
2023-04-15T22:11:18.047Z,0.95
2023-04-15T22:13:44.368Z,0.63
2023-04-15T22:16:11.591Z,0.60
2023-04-15T22:18:38.005Z,0.60
2023-04-15T22:21:04.384Z,1.05
2023-04-15T22:23:30.714Z,0.63
2023-04-15T22:25:57.151Z,0.35
2023-04-15T22:28:23.502Z,0.57
2023-04-15T22:30:49.981Z,0.65
2023-04-15T22:33:16.294Z,0.40
2023-04-15T22:35:42.621Z,0.65
2023-04-15T22:38:09.031Z,0.50
2023-04-15T22:40:35.405Z,0.73
2023-04-15T22:43:01.818Z,0.82
2023-04-15T22:45:28.228Z,0.82
2023-04-15T22:47:54.607Z,0.55
2023-04-15T22:50:21.218Z,0.70
2023-04-15T22:52:48.267Z,0.70
2023-04-15T22:55:14.995Z,0.63
2023-04-15T22:57:41.394Z,0.57
2023-04-15T23:00:09.348Z,0.70
2023-04-15T23:02:35.868Z,0.85
2023-04-15T23:05:02.662Z,0.85
2023-04-15T23:07:39.153Z,1.17
2023-04-15T23:10:06.105Z,0.95
2023-04-15T23:12:32.432Z,1.15
2023-04-15T23:14:58.784Z,0.93
2023-04-15T23:17:25.312Z,1.63
2023-04-15T23:19:51.879Z,1.83
2023-04-15T23:22:18.492Z,0.80
2023-04-15T23:24:44.822Z,0.80
2023-04-15T23:27:11.209Z,1.30
2023-04-15T23:29:37.655Z,1.25
2023-04-15T23:32:04.202Z,1.05
2023-04-15T23:34:30.793Z,1.80
2023-04-15T23:36:57.153Z,1.20
2023-04-15T23:39:23.450Z,1.42
2023-04-15T23:41:49.801Z,0.93
2023-04-15T23:44:16.137Z,1.33
2023-04-15T23:46:42.541Z,2.10
2023-04-15T23:49:09.070Z,1.20
2023-04-15T23:51:35.547Z,1.73
2023-04-15T23:54:01.985Z,1.10
2023-04-15T23:56:28.317Z,1.40
2023-04-15T23:58:54.730Z,1.77
